createdAt,value
2018-04-29T00:01:34.031Z,89.50
2018-04-29T00:04:03.032Z,89.40
2018-04-29T00:06:30.828Z,89.30
2018-04-29T00:08:59.421Z,90.10
2018-04-29T00:11:27.938Z,90.20
2018-04-29T00:13:55.631Z,90.20
2018-04-29T00:16:23.430Z,90.10
2018-04-29T00:18:51.780Z,90.90
2018-04-29T00:21:19.267Z,90.90
2018-04-29T00:23:46.779Z,90.70
2018-04-29T00:26:14.499Z,90.70
2018-04-29T00:28:42.010Z,90.90
2018-04-29T00:31:09.527Z,91.10
2018-04-29T00:33:37.001Z,91.10
2018-04-29T00:36:04.498Z,91.10
2018-04-29T00:38:32.272Z,91.20
2018-04-29T00:40:59.685Z,91.40
2018-04-29T00:43:27.150Z,91.40
2018-04-29T00:45:54.643Z,91.30
2018-04-29T00:48:22.215Z,91.20
2018-04-29T00:50:49.720Z,91.90
2018-04-29T00:53:17.253Z,92.00
2018-04-29T00:55:45.424Z,92.50
2018-04-29T00:58:12.985Z,92.10
2018-04-29T01:00:40.485Z,92.00
2018-04-29T01:03:08.953Z,92.10
2018-04-29T01:05:36.435Z,92.00
2018-04-29T01:08:04.685Z,92.10
2018-04-29T01:10:32.187Z,92.10
2018-04-29T01:12:59.958Z,92.30
2018-04-29T01:15:27.632Z,92.20
2018-04-29T01:17:55.267Z,92.30
2018-04-29T01:20:22.755Z,92.40
2018-04-29T01:22:50.687Z,92.20
2018-04-29T01:25:18.177Z,92.10
2018-04-29T01:27:45.810Z,92.50
2018-04-29T01:30:13.356Z,92.70
2018-04-29T01:32:41.024Z,92.80
2018-04-29T01:35:09.910Z,92.60
2018-04-29T01:37:37.435Z,92.70
2018-04-29T01:40:05.674Z,92.60
2018-04-29T01:42:33.141Z,92.60
2018-04-29T01:45:00.609Z,92.60
2018-04-29T01:47:28.105Z,92.60
2018-04-29T01:49:55.703Z,92.90
2018-04-29T01:52:23.173Z,92.80
2018-04-29T01:54:50.769Z,92.70
2018-04-29T01:57:18.377Z,92.60
2018-04-29T01:59:45.901Z,92.60
2018-04-29T02:02:13.375Z,92.60
2018-04-29T02:04:40.853Z,92.40
2018-04-29T02:07:08.476Z,92.50
2018-04-29T02:09:35.953Z,92.40
2018-04-29T02:12:03.522Z,92.50
2018-04-29T02:14:31.053Z,92.80
2018-04-29T02:16:58.736Z,92.90
2018-04-29T02:19:26.425Z,92.90
2018-04-29T02:21:55.897Z,93.10
2018-04-29T02:24:23.374Z,93.00
2018-04-29T02:26:50.937Z,92.90
2018-04-29T02:29:18.478Z,93.00
2018-04-29T02:31:45.925Z,93.40
2018-04-29T02:34:13.424Z,92.90
2018-04-29T02:36:41.717Z,93.10
2018-04-29T02:39:09.281Z,93.00
2018-04-29T02:41:36.755Z,93.00
2018-04-29T02:44:04.451Z,93.00
2018-04-29T02:46:32.087Z,93.00
2018-04-29T02:48:59.554Z,93.00
2018-04-29T02:51:27.032Z,93.00
2018-04-29T02:53:54.578Z,93.00
2018-04-29T02:56:22.090Z,93.20
2018-04-29T02:58:49.975Z,93.30
2018-04-29T03:01:17.575Z,93.10
2018-04-29T03:03:45.054Z,93.10
2018-04-29T03:06:12.697Z,92.90
2018-04-29T03:08:41.131Z,93.30
2018-04-29T03:11:08.809Z,93.30
2018-04-29T03:13:36.307Z,93.20
2018-04-29T03:16:03.821Z,93.20
2018-04-29T03:18:31.369Z,93.20
2018-04-29T03:20:59.001Z,93.20
2018-04-29T03:23:26.558Z,93.30
2018-04-29T03:25:54.027Z,93.40
2018-04-29T03:28:21.526Z,93.30
2018-04-29T03:30:49.097Z,93.20
2018-04-29T03:33:17.356Z,93.60
2018-04-29T03:35:44.827Z,93.60
2018-04-29T03:38:13.067Z,93.90
2018-04-29T03:40:40.709Z,93.90
2018-04-29T03:43:08.227Z,93.70
2018-04-29T03:45:36.647Z,93.70
2018-04-29T03:48:04.134Z,93.70
2018-04-29T03:50:31.644Z,93.60
2018-04-29T03:52:59.148Z,93.60
2018-04-29T03:55:26.732Z,93.60
2018-04-29T03:58:06.910Z,93.40
2018-04-29T04:00:51.039Z,93.40
2018-04-29T04:03:30.612Z,93.40
2018-04-29T04:05:58.100Z,93.50
2018-04-29T04:08:25.741Z,93.50
2018-04-29T04:10:53.211Z,93.50
2018-04-29T04:13:20.692Z,93.50
2018-04-29T04:15:49.047Z,93.60
2018-04-29T04:18:18.037Z,93.20
2018-04-29T04:20:47.062Z,93.30
2018-04-29T04:23:15.335Z,93.30
2018-04-29T04:25:43.584Z,93.10
2018-04-29T04:28:11.076Z,93.10
2018-04-29T04:30:39.472Z,92.80
2018-04-29T04:33:06.996Z,92.70
2018-04-29T04:35:35.242Z,92.50
2018-04-29T04:38:02.847Z,92.50
2018-04-29T04:40:30.335Z,92.60
2018-04-29T04:42:57.821Z,92.40
2018-04-29T04:45:25.281Z,92.50
2018-04-29T04:47:52.937Z,92.90
2018-04-29T04:50:20.430Z,92.40
2018-04-29T04:52:49.148Z,90.40
2018-04-29T04:55:16.741Z,87.20
2018-04-29T04:57:44.228Z,82.00
2018-04-29T05:00:11.713Z,76.10
2018-04-29T05:02:39.334Z,73.00
2018-04-29T05:05:07.709Z,71.90
2018-04-29T05:07:35.998Z,72.40
2018-04-29T05:10:04.359Z,73.30
2018-04-29T05:12:32.785Z,71.80
2018-04-29T05:15:00.411Z,71.70
2018-04-29T05:17:28.658Z,68.50
2018-04-29T05:19:56.165Z,68.60
2018-04-29T05:22:23.627Z,67.40
2018-04-29T05:24:51.288Z,66.70
2018-04-29T05:27:18.872Z,65.70
2018-04-29T05:29:46.390Z,66.10
2018-04-29T05:32:13.958Z,65.80
2018-04-29T05:34:41.460Z,65.30
2018-04-29T05:37:09.121Z,64.00
2018-04-29T05:39:36.730Z,65.50
2018-04-29T05:42:04.482Z,66.50
2018-04-29T05:44:31.979Z,67.40
2018-04-29T05:46:59.613Z,68.40
2018-04-29T05:49:27.146Z,69.20
2018-04-29T05:51:54.633Z,70.00
2018-04-29T05:54:22.123Z,71.10
2018-04-29T05:56:49.602Z,75.80
2018-04-29T05:59:17.921Z,81.30
2018-04-29T06:01:45.427Z,81.30
2018-04-29T06:04:12.990Z,82.40
2018-04-29T06:06:41.607Z,83.70
2018-04-29T06:09:09.981Z,81.60
2018-04-29T06:11:37.867Z,81.60
2018-04-29T06:14:05.643Z,78.60
2018-04-29T06:16:33.137Z,76.60
2018-04-29T06:19:01.441Z,76.30
2018-04-29T06:21:29.066Z,76.20
2018-04-29T06:23:57.582Z,76.20
2018-04-29T06:26:25.242Z,76.20
2018-04-29T06:28:52.798Z,76.80
2018-04-29T06:31:20.405Z,79.40
2018-04-29T06:33:48.012Z,78.70
2018-04-29T06:36:15.626Z,78.40
2018-04-29T06:38:43.192Z,80.10
2018-04-29T06:41:10.728Z,80.30
2018-04-29T06:43:38.265Z,79.30
2018-04-29T06:46:06.948Z,76.70
2018-04-29T06:48:34.472Z,75.40
2018-04-29T06:51:02.740Z,73.20
2018-04-29T06:53:31.076Z,73.80
2018-04-29T06:55:58.564Z,73.80
2018-04-29T06:58:26.056Z,73.70
2018-04-29T07:00:54.009Z,73.60
2018-04-29T07:03:21.498Z,74.50
2018-04-29T07:05:49.199Z,74.90
2018-04-29T07:08:16.742Z,75.00
2018-04-29T07:10:45.073Z,75.70
2018-04-29T07:13:12.559Z,75.70
2018-04-29T07:15:40.190Z,76.10
2018-04-29T07:18:07.754Z,77.90
2018-04-29T07:20:35.330Z,78.50
2018-04-29T07:23:03.171Z,79.60
2018-04-29T07:25:30.732Z,79.80
2018-04-29T07:27:58.219Z,80.60
2018-04-29T07:30:25.827Z,81.70
2018-04-29T07:32:54.103Z,84.70
2018-04-29T07:35:21.685Z,84.60
2018-04-29T07:37:49.170Z,90.30
2018-04-29T07:40:16.701Z,90.20
2018-04-29T07:42:44.259Z,85.50
2018-04-29T07:45:11.764Z,84.80
2018-04-29T07:47:40.108Z,76.70
2018-04-29T07:50:07.591Z,76.50
2018-04-29T07:52:35.139Z,71.70
2018-04-29T07:55:02.600Z,70.20
2018-04-29T07:57:30.928Z,65.20
2018-04-29T07:59:58.541Z,64.50
2018-04-29T08:02:26.863Z,64.70
2018-04-29T08:04:54.380Z,64.70
2018-04-29T08:07:22.029Z,64.30
2018-04-29T08:09:49.545Z,64.60
2018-04-29T08:12:17.063Z,65.00
2018-04-29T08:14:45.386Z,64.70
2018-04-29T08:17:12.880Z,64.60
2018-04-29T08:19:40.377Z,65.60
2018-04-29T08:22:08.205Z,64.90
2018-04-29T08:24:35.736Z,64.20
2018-04-29T08:27:03.265Z,62.50
2018-04-29T08:29:30.902Z,63.40
2018-04-29T08:31:59.316Z,64.60
2018-04-29T08:34:26.866Z,64.50
2018-04-29T08:36:54.346Z,66.60
2018-04-29T08:39:22.059Z,68.10
2018-04-29T08:41:49.748Z,70.00
2018-04-29T08:44:18.951Z,71.20
2018-04-29T08:46:46.430Z,72.70
2018-04-29T08:49:13.929Z,74.90
2018-04-29T08:51:41.420Z,75.70
2018-04-29T08:54:08.952Z,75.60
2018-04-29T08:56:36.489Z,74.20
2018-04-29T08:59:04.867Z,73.90
2018-04-29T09:01:33.147Z,69.30
2018-04-29T09:04:01.528Z,70.00
2018-04-29T09:06:28.938Z,69.90
2018-04-29T09:08:56.516Z,68.30
2018-04-29T09:11:24.103Z,64.50
2018-04-29T09:13:51.874Z,63.70
2018-04-29T09:16:19.507Z,62.40
2018-04-29T09:18:47.414Z,62.00
2018-04-29T09:21:15.093Z,62.00
2018-04-29T09:23:42.730Z,61.70
2018-04-29T09:26:10.462Z,59.50
2018-04-29T09:28:38.261Z,59.40
2018-04-29T09:31:05.973Z,59.00
2018-04-29T09:33:33.505Z,57.20
2018-04-29T09:36:01.172Z,56.90
2018-04-29T09:38:29.164Z,58.90
2018-04-29T09:40:58.542Z,60.00
2018-04-29T09:43:26.974Z,52.00
2018-04-29T09:45:54.467Z,51.90
2018-04-29T09:48:22.003Z,48.10
2018-04-29T09:50:49.509Z,47.50
2018-04-29T09:53:17.094Z,46.10
2018-04-29T09:55:44.640Z,43.10
2018-04-29T09:58:12.912Z,35.30
2018-04-29T10:00:47.024Z,30.10
2018-04-29T10:03:15.354Z,28.70
2018-04-29T10:05:46.369Z,29.10
2018-04-29T10:08:13.890Z,29.10
2018-04-29T10:10:42.320Z,29.30
2018-04-29T10:13:09.864Z,29.20
2018-04-29T10:15:37.723Z,30.80
2018-04-29T10:18:05.216Z,32.60
2018-04-29T10:20:32.783Z,35.30
2018-04-29T10:23:00.364Z,36.70
2018-04-29T10:25:28.120Z,39.40
2018-04-29T10:27:56.594Z,41.30
2018-04-29T10:30:24.092Z,41.20
2018-04-29T10:32:51.892Z,41.00
2018-04-29T10:35:19.339Z,41.60
2018-04-29T10:37:48.710Z,42.70
2018-04-29T10:40:16.231Z,43.40
2018-04-29T10:42:44.539Z,44.40
2018-04-29T10:45:12.644Z,44.40
2018-04-29T10:47:40.277Z,44.20
2018-04-29T10:50:07.777Z,45.00
2018-04-29T10:52:35.577Z,45.80
2018-04-29T10:55:03.039Z,46.10
2018-04-29T10:57:30.711Z,46.90
2018-04-29T10:59:58.313Z,47.30
2018-04-29T11:02:25.867Z,46.70
2018-04-29T11:04:53.396Z,46.80
2018-04-29T11:07:21.050Z,46.50
2018-04-29T11:09:48.661Z,46.40
2018-04-29T11:12:16.680Z,46.00
2018-04-29T11:14:44.166Z,46.00
2018-04-29T11:17:11.744Z,45.20
2018-04-29T11:19:39.506Z,45.50
2018-04-29T11:22:08.018Z,49.80
2018-04-29T11:24:35.595Z,49.90
2018-04-29T11:27:03.349Z,51.20
2018-04-29T11:29:31.013Z,50.20
2018-04-29T11:31:58.521Z,50.90
2018-04-29T11:34:26.023Z,49.80
2018-04-29T11:36:54.816Z,50.20
2018-04-29T11:39:22.525Z,49.10
2018-04-29T11:41:50.176Z,48.80
2018-04-29T11:44:17.714Z,50.00
2018-04-29T11:46:45.352Z,50.30
2018-04-29T11:49:12.829Z,52.30
2018-04-29T11:51:40.375Z,53.10
2018-04-29T11:54:07.872Z,56.20
2018-04-29T11:56:35.495Z,59.80
2018-04-29T11:59:03.102Z,62.50
2018-04-29T12:01:30.722Z,61.50
2018-04-29T12:03:58.505Z,61.40
2018-04-29T12:06:26.070Z,58.70
2018-04-29T12:08:56.166Z,59.40
2018-04-29T12:11:25.606Z,60.10
2018-04-29T12:13:53.152Z,59.80
2018-04-29T12:16:20.877Z,59.40
2018-04-29T12:18:49.885Z,55.90
2018-04-29T12:21:17.456Z,55.80
2018-04-29T12:23:44.910Z,54.90
2018-04-29T12:26:12.432Z,53.30
2018-04-29T12:28:39.916Z,52.60
2018-04-29T12:31:07.467Z,52.10
2018-04-29T12:33:35.041Z,51.50
2018-04-29T12:36:03.689Z,52.00
2018-04-29T12:38:31.165Z,52.30
2018-04-29T12:40:58.650Z,50.40
2018-04-29T12:43:26.156Z,50.00
2018-04-29T12:45:53.682Z,50.20
2018-04-29T12:48:22.170Z,48.60
2018-04-29T12:50:51.551Z,48.50
2018-04-29T12:53:19.030Z,48.60
2018-04-29T12:55:47.602Z,49.50
2018-04-29T12:58:15.928Z,50.00
2018-04-29T13:00:43.933Z,50.00
2018-04-29T13:03:11.608Z,49.80
2018-04-29T13:05:40.063Z,48.00
2018-04-29T13:08:08.382Z,48.80
2018-04-29T13:10:36.083Z,48.70
2018-04-29T13:13:03.759Z,49.80
2018-04-29T13:15:31.289Z,49.80
2018-04-29T13:17:59.017Z,49.20
2018-04-29T13:20:26.636Z,48.80
2018-04-29T13:22:54.225Z,49.00
2018-04-29T13:25:21.731Z,50.10
2018-04-29T13:27:49.291Z,49.70
2018-04-29T13:30:16.904Z,48.70
2018-04-29T13:32:44.494Z,48.80
2018-04-29T13:35:12.140Z,49.40
2018-04-29T13:37:39.801Z,49.00
2018-04-29T13:40:07.291Z,48.80
2018-04-29T13:42:34.786Z,48.00
2018-04-29T13:45:02.267Z,48.40
2018-04-29T13:47:29.889Z,48.20
2018-04-29T13:49:58.189Z,47.40
2018-04-29T13:52:25.720Z,47.30
2018-04-29T13:54:54.808Z,48.30
2018-04-29T13:57:22.346Z,48.20
2018-04-29T13:59:49.871Z,48.30
2018-04-29T14:02:17.414Z,48.60
2018-04-29T14:04:44.915Z,48.10
2018-04-29T14:07:12.511Z,47.90
2018-04-29T14:09:40.356Z,48.60
2018-04-29T14:12:07.838Z,48.30
2018-04-29T14:14:36.100Z,48.70
2018-04-29T14:17:04.360Z,49.20
2018-04-29T14:19:31.912Z,48.60
2018-04-29T14:21:59.428Z,49.20
2018-04-29T14:24:26.953Z,49.40
2018-04-29T14:26:55.263Z,50.20
2018-04-29T14:29:22.933Z,50.20
2018-04-29T14:31:50.519Z,52.30
2018-04-29T14:34:18.176Z,52.20
2018-04-29T14:36:45.924Z,52.30
2018-04-29T14:39:13.672Z,56.00
2018-04-29T14:41:41.545Z,56.30
2018-04-29T14:44:09.145Z,57.00
2018-04-29T14:46:37.067Z,57.10
2018-04-29T14:49:05.404Z,56.90
2018-04-29T14:51:32.936Z,56.20
2018-04-29T14:54:00.859Z,56.30
2018-04-29T14:56:28.354Z,56.10
2018-04-29T14:58:55.829Z,57.30
2018-04-29T15:01:23.585Z,59.10
2018-04-29T15:03:51.106Z,60.60
2018-04-29T15:06:18.601Z,61.90
2018-04-29T15:08:46.206Z,62.80
2018-04-29T15:11:14.557Z,60.30
2018-04-29T15:13:43.860Z,58.50
2018-04-29T15:16:11.456Z,58.60
2018-04-29T15:18:51.161Z,60.60
2018-04-29T15:21:19.448Z,59.60
2018-04-29T15:23:47.188Z,59.50
2018-04-29T15:26:16.180Z,59.50
2018-04-29T15:28:44.449Z,60.00
2018-04-29T15:31:12.859Z,60.60
2018-04-29T15:33:40.422Z,60.50
2018-04-29T15:36:07.924Z,61.00
2018-04-29T15:38:35.399Z,61.80
2018-04-29T15:41:03.637Z,61.20
2018-04-29T15:43:31.357Z,61.20
2018-04-29T15:45:58.913Z,61.10
2018-04-29T15:48:26.457Z,61.40
2018-04-29T15:50:54.715Z,60.80
2018-04-29T15:53:22.276Z,60.70
2018-04-29T15:55:49.800Z,61.30
2018-04-29T15:58:17.310Z,61.90
2018-04-29T16:00:45.669Z,61.30
2018-04-29T16:03:14.084Z,62.00
2018-04-29T16:05:41.605Z,62.00
2018-04-29T16:08:09.928Z,60.10
2018-04-29T16:10:37.689Z,60.10
2018-04-29T16:13:05.434Z,59.70
2018-04-29T16:15:33.040Z,59.00
2018-04-29T16:18:02.617Z,59.80
2018-04-29T16:20:30.794Z,60.10
2018-04-29T16:22:59.307Z,60.80
2018-04-29T16:25:27.074Z,60.70
2018-04-29T16:27:54.809Z,61.20
2018-04-29T16:30:22.750Z,61.40
2018-04-29T16:32:50.301Z,61.10
2018-04-29T16:35:17.842Z,60.60
2018-04-29T16:37:46.089Z,60.10
2018-04-29T16:40:14.367Z,59.50
2018-04-29T16:42:42.643Z,58.90
2018-04-29T16:45:11.684Z,58.50
2018-04-29T16:47:39.156Z,58.40
2018-04-29T16:50:06.655Z,58.60
2018-04-29T16:52:34.925Z,58.90
2018-04-29T16:55:04.069Z,58.80
2018-04-29T16:57:31.725Z,58.80
2018-04-29T16:59:59.488Z,58.70
2018-04-29T17:02:27.665Z,59.20
2018-04-29T17:04:55.313Z,59.20
2018-04-29T17:07:23.087Z,59.50
2018-04-29T17:09:50.580Z,60.20
2018-04-29T17:12:18.209Z,60.10
2018-04-29T17:14:46.827Z,61.20
2018-04-29T17:17:15.405Z,59.60
2018-04-29T17:19:43.079Z,59.50
2018-04-29T17:22:11.357Z,60.10
2018-04-29T17:24:39.668Z,60.80
2018-04-29T17:27:08.589Z,60.80
2018-04-29T17:29:36.260Z,61.80
2018-04-29T17:32:05.532Z,63.10
2018-04-29T17:34:33.262Z,64.10
2018-04-29T17:37:01.582Z,65.70
2018-04-29T17:42:03.082Z,66.20
2018-04-29T17:44:30.694Z,66.40
2018-04-29T17:46:58.251Z,66.80
2018-04-29T17:49:25.799Z,66.90
2018-04-29T17:51:53.728Z,67.30
2018-04-29T17:54:21.429Z,67.00
2018-04-29T17:56:49.217Z,67.40
2018-04-29T17:59:17.057Z,67.00
2018-04-29T18:01:44.637Z,67.20
2018-04-29T18:04:12.173Z,67.60
2018-04-29T18:06:39.967Z,67.70
2018-04-29T18:09:07.476Z,68.40
2018-04-29T18:11:35.733Z,68.90
2018-04-29T18:14:03.974Z,69.10
2018-04-29T18:16:31.566Z,69.10
2018-04-29T18:18:59.992Z,69.30
2018-04-29T18:21:28.166Z,69.20
2018-04-29T18:23:55.693Z,69.10
2018-04-29T18:26:23.192Z,67.90
2018-04-29T18:28:50.673Z,67.70
2018-04-29T18:31:18.199Z,66.40
2018-04-29T18:33:45.712Z,66.40
2018-04-29T18:36:14.168Z,65.60
2018-04-29T18:38:41.870Z,65.40
2018-04-29T18:41:09.480Z,65.80
2018-04-29T18:43:37.122Z,65.90
2018-04-29T18:46:05.526Z,65.20
2018-04-29T18:48:33.907Z,64.20
2018-04-29T18:51:01.552Z,64.20
2018-04-29T18:53:30.495Z,64.50
2018-04-29T18:55:57.996Z,63.80
2018-04-29T18:58:25.505Z,63.60
2018-04-29T19:00:53.082Z,63.50
2018-04-29T19:03:20.708Z,63.30
2018-04-29T19:05:49.015Z,62.90
2018-04-29T19:08:16.820Z,62.80
2018-04-29T19:10:45.070Z,61.60
2018-04-29T19:13:12.992Z,61.50
2018-04-29T19:15:41.247Z,60.00
2018-04-29T19:18:09.608Z,59.00
2018-04-29T19:20:37.986Z,58.90
2018-04-29T19:23:05.602Z,58.90
2018-04-29T19:25:33.075Z,58.80
2018-04-29T19:28:00.764Z,59.10
2018-04-29T19:30:28.251Z,59.40
2018-04-29T19:32:56.530Z,59.90
2018-04-29T19:35:25.076Z,60.00
2018-04-29T19:37:52.898Z,60.00
2018-04-29T19:40:20.712Z,60.10
2018-04-29T19:42:48.193Z,60.30
2018-04-29T19:45:16.461Z,61.20
2018-04-29T19:47:44.781Z,61.70
2018-04-29T19:50:12.274Z,61.70
2018-04-29T19:52:39.793Z,62.50
2018-04-29T19:55:07.447Z,63.10
2018-04-29T19:57:35.103Z,63.70
2018-04-29T20:00:02.815Z,64.20
2018-04-29T20:02:30.285Z,65.00
2018-04-29T20:04:58.900Z,66.10
2018-04-29T20:07:26.538Z,66.00
2018-04-29T20:09:54.222Z,66.30
2018-04-29T20:12:21.880Z,66.90
2018-04-29T20:14:49.403Z,67.40
2018-04-29T20:17:17.680Z,68.30
2018-04-29T20:19:45.956Z,68.80
2018-04-29T20:22:14.216Z,69.10
2018-04-29T20:24:41.715Z,69.10
2018-04-29T20:27:09.241Z,69.80
2018-04-29T20:29:37.665Z,70.40
2018-04-29T20:32:05.310Z,70.20
2018-04-29T20:34:32.811Z,70.60
2018-04-29T20:37:01.188Z,71.20
2018-04-29T20:39:28.702Z,71.20
2018-04-29T20:41:56.467Z,71.20
2018-04-29T20:44:23.949Z,71.70
2018-04-29T20:46:51.446Z,72.00
2018-04-29T20:49:19.685Z,72.40
2018-04-29T20:51:47.198Z,72.40
2018-04-29T20:54:14.712Z,72.40
2018-04-29T20:56:42.193Z,72.60
2018-04-29T20:59:09.730Z,72.70
2018-04-29T21:01:38.338Z,74.00
2018-04-29T21:04:06.700Z,73.50
2018-04-29T21:06:34.420Z,73.50
2018-04-29T21:09:02.268Z,73.80
2018-04-29T21:11:29.773Z,74.20
2018-04-29T21:13:58.273Z,74.70
2018-04-29T21:16:25.760Z,74.80
2018-04-29T21:18:53.280Z,75.10
2018-04-29T21:21:21.556Z,75.60
2018-04-29T21:23:49.856Z,75.90
2018-04-29T21:26:17.360Z,75.90
2018-04-29T21:28:44.834Z,76.10
2018-04-29T21:31:13.081Z,76.60
2018-04-29T21:33:40.592Z,76.60
2018-04-29T21:36:08.149Z,76.50
2018-04-29T21:38:35.626Z,76.70
2018-04-29T21:41:03.240Z,76.90
2018-04-29T21:43:31.490Z,77.10
2018-04-29T21:45:58.958Z,77.10
2018-04-29T21:48:26.444Z,77.10
2018-04-29T21:50:54.692Z,76.90
2018-04-29T21:53:22.169Z,76.90
2018-04-29T21:55:50.453Z,77.10
2018-04-29T21:58:18.696Z,76.70
2018-04-29T22:00:46.171Z,76.70
2018-04-29T22:03:14.425Z,76.40
2018-04-29T22:05:41.915Z,76.40
2018-04-29T22:08:09.394Z,76.60
2018-04-29T22:10:36.887Z,76.70
2018-04-29T22:13:04.375Z,78.10
2018-04-29T22:15:32.701Z,78.70
2018-04-29T22:18:01.022Z,79.20
2018-04-29T22:20:29.342Z,79.50
2018-04-29T22:22:56.835Z,79.40
2018-04-29T22:25:24.328Z,79.60
2018-04-29T22:27:51.965Z,79.50
2018-04-29T22:30:20.243Z,80.00
2018-04-29T22:32:48.490Z,80.60
2018-04-29T22:35:16.005Z,80.60
2018-04-29T22:37:43.536Z,81.40
2018-04-29T22:40:11.793Z,85.70
2018-04-29T22:42:39.287Z,85.70
2018-04-29T22:45:06.844Z,85.80
2018-04-29T22:47:34.960Z,88.20
2018-04-29T22:50:04.096Z,90.40
2018-04-29T22:52:31.754Z,90.70
2018-04-29T22:55:00.391Z,91.70
2018-04-29T22:57:28.125Z,91.70
2018-04-29T22:59:55.998Z,92.50
2018-04-29T23:02:23.985Z,93.00
2018-04-29T23:04:51.633Z,93.60
2018-04-29T23:07:19.966Z,94.20
2018-04-29T23:09:47.877Z,94.80
2018-04-29T23:12:15.537Z,95.50
2018-04-29T23:14:43.115Z,96.10
2018-04-29T23:17:10.883Z,96.50
2018-04-29T23:19:38.596Z,97.00
2018-04-29T23:22:06.413Z,97.30
2018-04-29T23:24:35.265Z,97.50
2018-04-29T23:27:02.732Z,98.00
2018-04-29T23:29:30.274Z,98.10
2018-04-29T23:31:57.749Z,98.40
2018-04-29T23:34:25.276Z,98.70
2018-04-29T23:36:52.768Z,98.90
2018-04-29T23:39:20.245Z,99.30
2018-04-29T23:41:47.723Z,99.30
2018-04-29T23:44:15.961Z,99.90
2018-04-29T23:46:43.442Z,99.90
2018-04-29T23:49:10.942Z,99.90
2018-04-29T23:51:38.418Z,99.90
2018-04-29T23:54:05.902Z,99.90
2018-04-29T23:56:33.414Z,99.90
2018-04-29T23:59:00.904Z,99.90
